Rockford, IL

1:24 PM CDT on August 29, 2015 (GMT -0500)
Greenlee Estates | | Change Station
CLOSE
Current Station
Personal Weather Station
Location: Winnebago, IL
Elevation: 850 ft
Nearby Weather Stations

Elev 850 ft 42.26 °N, 89.23 °W | Updated 44 seconds ago

Overcast
Overcast
70.3 °F
Feels Like 72 °F
N
0.0
Wind Variable Wind from West
Gusts 0.0 mph

Today
High -- | Low -- °F
--% Chance of Precip.
Yesterday
High -- | Low -- °F
Precip. -- in
6:18 AM 7:35 PM
Full, 100% visible
Pressure 30.02 in
Visibility 8.0 miles
Clouds Overcast 1200 ft
Heat Index 72 °F
Dew Point 62 °F
Humidity 76%
Rainfall 1.08 in
Snow Depth Not available.
UV 1.0 out of 12
Pollen .70 out of 12
Air Quality Not available.
Flu Activity Not available.
METAR KRFD 291754Z VRB03KT 8SM OVC012 21/18 A3002 RMK AO2 SLP164 60044 T02110178 10211 20172 58003
Pressure 30.02 in
Visibility 8.0 miles
Clouds Overcast 1200 ft
Heat Index 72 °F
Dew Point 62 °F
Humidity 76%
Rainfall 1.08 in
Snow Depth Not available.
UV 1.0 out of 12
Pollen .70 out of 12
Air Quality Not available.
Flu Activity Not available.
METAR KRFD 291754Z VRB03KT 8SM OVC012 21/18 A3002 RMK AO2 SLP164 60044 T02110178 10211 20172 58003

10-Day Weather Forecast

×

Almanac

Astronomy

Aug. 29, 2015 Rise Set
Actual Time
Civil Twilight
Nautical Twilight
Astronomical Twilight
Moon
Length of Visible Light
Length of Day
Tomorrow will be .
, % of the Moon is Illuminated

Today's Extremes

State Highs State Lows

Community

WunderPhotos

Upload Photos

1,850,755 photos uploaded!

WunderBlogs® & News

Nearby

Air Quality

  Air Quality AQ Index Pollutant
Not available.

Snow Depth

Station Depth Elevation

Earthquake Activity

City Distance Mag. Time & Date
Minimum magnitude displayed is 2.5.

Coastal Water Temperatures

Place Temperature

Stations

Nearby Weather Stations

Station Location Temp. Windchill Dew Point Humidity Wind Precip. Elev Updated Type